sensor_id;sensor_type;location;lat;lon;timestamp;pressure;altitude;pressure_sealevel;temperature;humidity
11605;BME280;5858;43.076;25.626;2023-01-04T00:02:14;100249.44;;;5.77;97.68
11605;BME280;5858;43.076;25.626;2023-01-04T00:04:41;100311.19;;;6.11;97.80
11605;BME280;5858;43.076;25.626;2023-01-04T00:07:08;100317.22;;;6.13;97.95
11605;BME280;5858;43.076;25.626;2023-01-04T00:09:35;100306.13;;;6.08;98.01
11605;BME280;5858;43.076;25.626;2023-01-04T00:12:03;100217.63;;;5.45;97.08
11605;BME280;5858;43.076;25.626;2023-01-04T00:14:30;100308.72;;;5.98;97.91
11605;BME280;5858;43.076;25.626;2023-01-04T00:16:58;100296.31;;;5.88;97.90
11605;BME280;5858;43.076;25.626;2023-01-04T00:19:25;100256.91;;;5.51;98.17
11605;BME280;5858;43.076;25.626;2023-01-04T00:21:52;100212.03;;;5.27;98.47
11605;BME280;5858;43.076;25.626;2023-01-04T00:24:20;100233.66;;;5.23;98.58
11605;BME280;5858;43.076;25.626;2023-01-04T00:26:47;100114.78;;;4.53;98.58
11605;BME280;5858;43.076;25.626;2023-01-04T00:29:14;100277.13;;;5.63;98.90
11605;BME280;5858;43.076;25.626;2023-01-04T00:31:41;100238.53;;;5.38;98.56
11605;BME280;5858;43.076;25.626;2023-01-04T00:34:13;100318.41;;;5.88;98.16
11605;BME280;5858;43.076;25.626;2023-01-04T00:36:40;100324.00;;;5.85;98.75
11605;BME280;5858;43.076;25.626;2023-01-04T00:39:11;100231.47;;;5.28;97.52
11605;BME280;5858;43.076;25.626;2023-01-04T00:41:41;100280.22;;;5.48;96.77
11605;BME280;5858;43.076;25.626;2023-01-04T00:44:09;100293.88;;;5.43;96.82
11605;BME280;5858;43.076;25.626;2023-01-04T00:46:36;100270.66;;;5.24;98.10
11605;BME280;5858;43.076;25.626;2023-01-04T00:49:04;100335.31;;;5.55;99.19
11605;BME280;5858;43.076;25.626;2023-01-04T00:51:34;100335.56;;;5.52;99.26
11605;BME280;5858;43.076;25.626;2023-01-04T00:54:04;100318.72;;;5.42;100.00
11605;BME280;5858;43.076;25.626;2023-01-04T00:56:33;100333.19;;;5.49;100.00
11605;BME280;5858;43.076;25.626;2023-01-04T00:59:02;100320.53;;;5.42;100.00
11605;BME280;5858;43.076;25.626;2023-01-04T01:01:30;100338.31;;;5.62;100.00
11605;BME280;5858;43.076;25.626;2023-01-04T01:03:59;100327.22;;;5.68;99.72
11605;BME280;5858;43.076;25.626;2023-01-04T01:06:28;100203.38;;;4.82;99.30
11605;BME280;5858;43.076;25.626;2023-01-04T01:08:57;100338.44;;;5.60;99.91
11605;BME280;5858;43.076;25.626;2023-01-04T01:11:25;100276.69;;;5.15;99.45
11605;BME280;5858;43.076;25.626;2023-01-04T01:13:52;100331.44;;;5.59;99.06
11605;BME280;5858;43.076;25.626;2023-01-04T01:16:21;100117.00;;;4.25;98.95
11605;BME280;5858;43.076;25.626;2023-01-04T01:18:49;100315.09;;;5.43;97.93
11605;BME280;5858;43.076;25.626;2023-01-04T01:21:17;100283.44;;;5.19;98.15
11605;BME280;5858;43.076;25.626;2023-01-04T01:23:45;100286.84;;;5.10;98.90
11605;BME280;5858;43.076;25.626;2023-01-04T01:26:16;100297.69;;;5.07;98.78
11605;BME280;5858;43.076;25.626;2023-01-04T01:28:44;100342.44;;;5.23;99.11
11605;BME280;5858;43.076;25.626;2023-01-04T01:31:13;100345.94;;;5.23;99.10
11605;BME280;5858;43.076;25.626;2023-01-04T01:33:42;100239.81;;;4.58;98.30
11605;BME280;5858;43.076;25.626;2023-01-04T01:36:10;100332.41;;;5.26;98.11
11605;BME280;5858;43.076;25.626;2023-01-04T01:38:38;100341.94;;;5.18;98.10
11605;BME280;5858;43.076;25.626;2023-01-04T01:41:07;100200.22;;;4.34;98.73
11605;BME280;5858;43.076;25.626;2023-01-04T01:43:51;100297.00;;;4.94;99.07
11605;BME280;5858;43.076;25.626;2023-01-04T01:46:22;100221.78;;;4.29;99.29
11605;BME280;5858;43.076;25.626;2023-01-04T01:48:55;100330.59;;;5.16;99.16
11605;BME280;5858;43.076;25.626;2023-01-04T01:51:25;100281.03;;;4.73;99.95
11605;BME280;5858;43.076;25.626;2023-01-04T01:53:55;100220.31;;;4.25;99.32
11605;BME280;5858;43.076;25.626;2023-01-04T01:56:25;100215.88;;;4.37;99.24
11605;BME280;5858;43.076;25.626;2023-01-04T01:58:57;100286.44;;;4.83;99.23
11605;BME280;5858;43.076;25.626;2023-01-04T02:01:26;100341.34;;;5.14;98.92
11605;BME280;5858;43.076;25.626;2023-01-04T02:03:53;100334.09;;;5.16;99.20
11605;BME280;5858;43.076;25.626;2023-01-04T02:06:25;100322.88;;;5.13;99.09
11605;BME280;5858;43.076;25.626;2023-01-04T02:08:54;100313.16;;;5.02;98.66
11605;BME280;5858;43.076;25.626;2023-01-04T02:11:21;100311.78;;;5.19;97.31
11605;BME280;5858;43.076;25.626;2023-01-04T02:13:49;100303.59;;;5.11;97.56
11605;BME280;5858;43.076;25.626;2023-01-04T02:16:46;100341.56;;;5.33;97.75
11605;BME280;5858;43.076;25.626;2023-01-04T02:19:58;100261.59;;;4.84;98.17
11605;BME280;5858;43.076;25.626;2023-01-04T02:25:59;100220.50;;;4.67;97.59
11605;BME280;5858;43.076;25.626;2023-01-04T02:28:46;100321.03;;;5.35;97.38
11605;BME280;5858;43.076;25.626;2023-01-04T02:31:27;100345.59;;;5.49;97.67
11605;BME280;5858;43.076;25.626;2023-01-04T02:34:03;100329.56;;;5.50;97.16
11605;BME280;5858;43.076;25.626;2023-01-04T02:36:35;100331.81;;;5.55;97.57
11605;BME280;5858;43.076;25.626;2023-01-04T02:39:12;100193.75;;;4.70;97.55
11605;BME280;5858;43.076;25.626;2023-01-04T02:41:46;100285.00;;;5.33;97.99
11605;BME280;5858;43.076;25.626;2023-01-04T02:44:18;100243.94;;;5.05;98.07
11605;BME280;5858;43.076;25.626;2023-01-04T02:47:07;100312.03;;;5.59;97.91
11605;BME280;5858;43.076;25.626;2023-01-04T02:49:35;100321.34;;;5.53;98.32
11605;BME280;5858;43.076;25.626;2023-01-04T02:52:21;100333.13;;;5.60;98.11
11605;BME280;5858;43.076;25.626;2023-01-04T02:54:50;100322.19;;;5.54;98.25
11605;BME280;5858;43.076;25.626;2023-01-04T02:57:31;100316.88;;;5.54;98.54
11605;BME280;5858;43.076;25.626;2023-01-04T03:00:16;100311.31;;;5.57;98.89
11605;BME280;5858;43.076;25.626;2023-01-04T03:03:14;100321.66;;;5.60;99.16
11605;BME280;5858;43.076;25.626;2023-01-04T03:06:07;100317.06;;;5.62;98.54
11605;BME280;5858;43.076;25.626;2023-01-04T03:08:48;100317.25;;;5.49;99.07
11605;BME280;5858;43.076;25.626;2023-01-04T03:11:17;100328.84;;;5.48;99.36
11605;BME280;5858;43.076;25.626;2023-01-04T03:14:07;100311.09;;;5.49;99.29
11605;BME280;5858;43.076;25.626;2023-01-04T03:16:36;100252.94;;;5.14;99.80
11605;BME280;5858;43.076;25.626;2023-01-04T03:19:08;100320.06;;;5.36;99.21
11605;BME280;5858;43.076;25.626;2023-01-04T03:21:39;100217.69;;;4.36;98.13
11605;BME280;5858;43.076;25.626;2023-01-04T03:24:09;100264.50;;;4.58;98.78
11605;BME280;5858;43.076;25.626;2023-01-04T03:26:58;100323.78;;;4.80;99.29
11605;BME280;5858;43.076;25.626;2023-01-04T03:29:51;100317.88;;;4.65;100.00
11605;BME280;5858;43.076;25.626;2023-01-04T03:32:43;100325.59;;;4.68;100.00
11605;BME280;5858;43.076;25.626;2023-01-04T03:35:37;100273.06;;;4.28;100.00
11605;BME280;5858;43.076;25.626;2023-01-04T03:38:10;100265.97;;;4.29;100.00
11605;BME280;5858;43.076;25.626;2023-01-04T03:41:00;100267.78;;;4.28;100.00
11605;BME280;5858;43.076;25.626;2023-01-04T03:43:52;100253.22;;;4.34;100.00
11605;BME280;5858;43.076;25.626;2023-01-04T03:46:44;100332.72;;;4.79;100.00
11605;BME280;5858;43.076;25.626;2023-01-04T03:49:37;100315.56;;;4.71;100.00
11605;BME280;5858;43.076;25.626;2023-01-04T03:52:08;100149.03;;;3.66;100.00
11605;BME280;5858;43.076;25.626;2023-01-04T03:54:38;100345.25;;;4.77;100.00
11605;BME280;5858;43.076;25.626;2023-01-04T03:57:08;100320.53;;;4.76;100.00
11605;BME280;5858;43.076;25.626;2023-01-04T03:59:38;100267.16;;;4.47;100.00
11605;BME280;5858;43.076;25.626;2023-01-04T04:02:09;100306.91;;;4.69;100.00
11605;BME280;5858;43.076;25.626;2023-01-04T04:04:38;100208.03;;;4.02;99.07
11605;BME280;5858;43.076;25.626;2023-01-04T04:07:24;100202.25;;;3.97;99.30
11605;BME280;5858;43.076;25.626;2023-01-04T04:10:08;100290.28;;;4.34;99.62
11605;BME280;5858;43.076;25.626;2023-01-04T04:12:35;100252.50;;;3.74;100.00
11605;BME280;5858;43.076;25.626;2023-01-04T04:15:03;100298.44;;;4.20;100.00
11605;BME280;5858;43.076;25.626;2023-01-04T04:17:30;100229.34;;;3.89;100.00
11605;BME280;5858;43.076;25.626;2023-01-04T04:19:58;100262.09;;;4.10;100.00
11605;BME280;5858;43.076;25.626;2023-01-04T04:22:27;100335.59;;;4.53;100.00
11605;BME280;5858;43.076;25.626;2023-01-04T04:24:54;100189.56;;;3.56;100.00
11605;BME280;5858;43.076;25.626;2023-01-04T04:27:21;100140.66;;;3.26;100.00
11605;BME280;5858;43.076;25.626;2023-01-04T04:29:48;100263.97;;;3.86;100.00
11605;BME280;5858;43.076;25.626;2023-01-04T04:32:15;100250.50;;;3.89;100.00
11605;BME280;5858;43.076;25.626;2023-01-04T04:34:42;100332.28;;;4.16;100.00
11605;BME280;5858;43.076;25.626;2023-01-04T04:37:09;100362.56;;;4.47;100.00
11605;BME280;5858;43.076;25.626;2023-01-04T04:39:39;100368.47;;;4.62;100.00
11605;BME280;5858;43.076;25.626;2023-01-04T04:42:06;100228.72;;;3.86;100.00
11605;BME280;5858;43.076;25.626;2023-01-04T04:44:33;100325.34;;;4.49;100.00
11605;BME280;5858;43.076;25.626;2023-01-04T04:47:01;100285.25;;;4.31;100.00
11605;BME280;5858;43.076;25.626;2023-01-04T04:49:28;100242.69;;;3.99;100.00
11605;BME280;5858;43.076;25.626;2023-01-04T04:51:55;100297.28;;;4.46;100.00
11605;BME280;5858;43.076;25.626;2023-01-04T04:54:22;100293.31;;;4.40;98.91
11605;BME280;5858;43.076;25.626;2023-01-04T04:56:50;100378.97;;;4.63;99.35
11605;BME280;5858;43.076;25.626;2023-01-04T04:59:18;100326.06;;;4.39;99.40
11605;BME280;5858;43.076;25.626;2023-01-04T05:01:45;100365.59;;;4.65;99.10
11605;BME280;5858;43.076;25.626;2023-01-04T05:04:12;100213.63;;;3.64;98.72
11605;BME280;5858;43.076;25.626;2023-01-04T05:06:41;100361.72;;;4.47;99.15
11605;BME280;5858;43.076;25.626;2023-01-04T05:09:09;100368.84;;;4.46;100.00
11605;BME280;5858;43.076;25.626;2023-01-04T05:11:37;100339.63;;;4.24;100.00
11605;BME280;5858;43.076;25.626;2023-01-04T05:14:23;100373.16;;;4.47;99.66
11605;BME280;5858;43.076;25.626;2023-01-04T05:16:50;100266.13;;;3.81;99.91
11605;BME280;5858;43.076;25.626;2023-01-04T05:19:18;100375.44;;;4.40;99.72
11605;BME280;5858;43.076;25.626;2023-01-04T05:21:45;100210.47;;;3.47;100.00
11605;BME280;5858;43.076;25.626;2023-01-04T05:24:12;100354.00;;;4.32;99.87
11605;BME280;5858;43.076;25.626;2023-01-04T05:26:40;100275.78;;;3.93;99.59
11605;BME280;5858;43.076;25.626;2023-01-04T05:29:06;100303.09;;;3.94;99.56
11605;BME280;5858;43.076;25.626;2023-01-04T05:31:55;100372.09;;;4.50;99.14
11605;BME280;5858;43.076;25.626;2023-01-04T05:34:21;100246.84;;;3.68;99.44
11605;BME280;5858;43.076;25.626;2023-01-04T05:36:48;100373.66;;;4.41;99.49
11605;BME280;5858;43.076;25.626;2023-01-04T05:39:15;100297.09;;;3.92;99.13
11605;BME280;5858;43.076;25.626;2023-01-04T05:41:42;100314.69;;;4.04;99.64
11605;BME280;5858;43.076;25.626;2023-01-04T05:44:27;100393.88;;;4.42;99.09
11605;BME280;5858;43.076;25.626;2023-01-04T05:46:56;100389.31;;;4.44;99.78
11605;BME280;5858;43.076;25.626;2023-01-04T05:49:24;100200.50;;;3.16;99.76
11605;BME280;5858;43.076;25.626;2023-01-04T05:51:51;100274.53;;;3.75;99.09
11605;BME280;5858;43.076;25.626;2023-01-04T05:54:19;100310.81;;;3.97;99.62
11605;BME280;5858;43.076;25.626;2023-01-04T05:56:46;100177.41;;;3.18;99.12
11605;BME280;5858;43.076;25.626;2023-01-04T05:59:16;100345.53;;;4.16;100.00
11605;BME280;5858;43.076;25.626;2023-01-04T06:01:43;100275.19;;;3.90;100.00
11605;BME280;5858;43.076;25.626;2023-01-04T06:04:12;100371.25;;;4.49;99.77
11605;BME280;5858;43.076;25.626;2023-01-04T06:06:38;100284.22;;;4.09;99.45
11605;BME280;5858;43.076;25.626;2023-01-04T06:09:05;100398.16;;;4.89;99.31
11605;BME280;5858;43.076;25.626;2023-01-04T06:11:33;100407.31;;;4.74;99.93
11605;BME280;5858;43.076;25.626;2023-01-04T06:14:00;100302.66;;;4.11;99.48
11605;BME280;5858;43.076;25.626;2023-01-04T06:16:27;100232.38;;;3.61;99.07
11605;BME280;5858;43.076;25.626;2023-01-04T06:18:54;100342.94;;;4.38;99.11
11605;BME280;5858;43.076;25.626;2023-01-04T06:21:23;100255.44;;;3.94;98.81
11605;BME280;5858;43.076;25.626;2023-01-04T06:23:50;100418.28;;;4.92;98.96
11605;BME280;5858;43.076;25.626;2023-01-04T06:26:17;100301.94;;;4.20;98.52
11605;BME280;5858;43.076;25.626;2023-01-04T06:28:44;100422.50;;;5.05;98.02
11605;BME280;5858;43.076;25.626;2023-01-04T06:31:12;100402.50;;;4.90;96.85
11605;BME280;5858;43.076;25.626;2023-01-04T06:33:39;100386.94;;;4.74;96.89
11605;BME280;5858;43.076;25.626;2023-01-04T06:36:06;100419.38;;;5.00;98.01
11605;BME280;5858;43.076;25.626;2023-01-04T06:38:35;100327.41;;;4.45;97.70
11605;BME280;5858;43.076;25.626;2023-01-04T06:41:02;100388.75;;;4.85;97.56
11605;BME280;5858;43.076;25.626;2023-01-04T06:43:29;100288.25;;;4.37;97.10
11605;BME280;5858;43.076;25.626;2023-01-04T06:45:57;100312.47;;;4.44;97.09
11605;BME280;5858;43.076;25.626;2023-01-04T06:48:25;100393.56;;;5.02;97.84
11605;BME280;5858;43.076;25.626;2023-01-04T06:50:53;100456.03;;;5.29;97.90
11605;BME280;5858;43.076;25.626;2023-01-04T06:53:20;100439.75;;;5.33;96.90
11605;BME280;5858;43.076;25.626;2023-01-04T06:55:49;100414.19;;;5.10;97.21
11605;BME280;5858;43.076;25.626;2023-01-04T06:58:17;100385.97;;;4.98;97.03
11605;BME280;5858;43.076;25.626;2023-01-04T07:00:45;100350.06;;;4.83;96.50
11605;BME280;5858;43.076;25.626;2023-01-04T07:03:14;100395.38;;;5.13;96.60
11605;BME280;5858;43.076;25.626;2023-01-04T07:05:41;100314.63;;;4.39;97.16
11605;BME280;5858;43.076;25.626;2023-01-04T07:08:11;100370.53;;;5.03;97.40
11605;BME280;5858;43.076;25.626;2023-01-04T07:10:38;100357.06;;;4.84;97.91
11605;BME280;5858;43.076;25.626;2023-01-04T07:13:09;100410.09;;;5.28;98.19
11605;BME280;5858;43.076;25.626;2023-01-04T07:15:36;100428.88;;;5.48;98.01
11605;BME280;5858;43.076;25.626;2023-01-04T07:18:03;100360.38;;;5.19;97.65
11605;BME280;5858;43.076;25.626;2023-01-04T07:20:30;100462.25;;;5.61;97.77
11605;BME280;5858;43.076;25.626;2023-01-04T07:22:57;100397.50;;;5.42;97.37
11605;BME280;5858;43.076;25.626;2023-01-04T07:25:24;100417.00;;;5.63;97.46
11605;BME280;5858;43.076;25.626;2023-01-04T07:27:54;100419.44;;;5.55;97.68
11605;BME280;5858;43.076;25.626;2023-01-04T07:30:26;100446.78;;;5.78;97.62
11605;BME280;5858;43.076;25.626;2023-01-04T07:32:53;100326.25;;;5.15;97.58
11605;BME280;5858;43.076;25.626;2023-01-04T07:35:24;100432.41;;;5.91;98.49
11605;BME280;5858;43.076;25.626;2023-01-04T07:37:53;100413.00;;;5.80;98.15
11605;BME280;5858;43.076;25.626;2023-01-04T07:40:20;100387.78;;;5.74;98.04
11605;BME280;5858;43.076;25.626;2023-01-04T07:42:56;100439.69;;;6.21;98.02
11605;BME280;5858;43.076;25.626;2023-01-04T07:45:26;100393.69;;;6.10;97.80
11605;BME280;5858;43.076;25.626;2023-01-04T07:47:56;100336.56;;;5.83;97.24
11605;BME280;5858;43.076;25.626;2023-01-04T07:50:23;100383.78;;;6.12;97.47
11605;BME280;5858;43.076;25.626;2023-01-04T07:52:50;100309.03;;;5.84;97.07
11605;BME280;5858;43.076;25.626;2023-01-04T07:55:17;100448.31;;;6.76;97.12
11605;BME280;5858;43.076;25.626;2023-01-04T07:57:44;100450.06;;;6.87;96.33
11605;BME280;5858;43.076;25.626;2023-01-04T08:00:15;100451.16;;;6.84;96.41
11605;BME280;5858;43.076;25.626;2023-01-04T08:02:44;100348.78;;;6.27;95.72
11605;BME280;5858;43.076;25.626;2023-01-04T08:05:11;100391.97;;;6.41;96.21
11605;BME280;5858;43.076;25.626;2023-01-04T08:07:38;100371.63;;;6.30;96.06
11605;BME280;5858;43.076;25.626;2023-01-04T08:10:06;100473.78;;;7.00;95.96
11605;BME280;5858;43.076;25.626;2023-01-04T08:12:34;100273.16;;;5.90;96.12
11605;BME280;5858;43.076;25.626;2023-01-04T08:15:04;100326.88;;;6.35;95.70
11605;BME280;5858;43.076;25.626;2023-01-04T08:17:31;100441.53;;;7.14;95.11
11605;BME280;5858;43.076;25.626;2023-01-04T08:20:00;100403.69;;;6.80;94.71
11605;BME280;5858;43.076;25.626;2023-01-04T08:22:29;100430.75;;;6.94;94.48
11605;BME280;5858;43.076;25.626;2023-01-04T08:24:57;100470.88;;;7.33;93.64
11605;BME280;5858;43.076;25.626;2023-01-04T08:27:24;100409.03;;;6.89;94.14
11605;BME280;5858;43.076;25.626;2023-01-04T08:29:51;100487.97;;;7.31;93.99
11605;BME280;5858;43.076;25.626;2023-01-04T08:32:18;100372.31;;;6.53;93.28
11605;BME280;5858;43.076;25.626;2023-01-04T08:34:45;100380.28;;;6.53;93.36
11605;BME280;5858;43.076;25.626;2023-01-04T08:37:14;100407.97;;;6.71;93.91
11605;BME280;5858;43.076;25.626;2023-01-04T08:39:41;100293.91;;;5.96;93.52
11605;BME280;5858;43.076;25.626;2023-01-04T08:42:09;100373.63;;;6.38;93.61
11605;BME280;5858;43.076;25.626;2023-01-04T08:44:36;100370.47;;;6.53;93.78
11605;BME280;5858;43.076;25.626;2023-01-04T08:47:07;100392.91;;;6.60;94.53
11605;BME280;5858;43.076;25.626;2023-01-04T08:49:39;100448.06;;;6.79;94.86
11605;BME280;5858;43.076;25.626;2023-01-04T08:52:06;100471.69;;;7.24;94.38
11605;BME280;5858;43.076;25.626;2023-01-04T08:54:44;100469.06;;;7.34;94.27
11605;BME280;5858;43.076;25.626;2023-01-04T08:57:11;100497.22;;;7.36;93.72
11605;BME280;5858;43.076;25.626;2023-01-04T08:59:38;100424.56;;;6.84;94.20
11605;BME280;5858;43.076;25.626;2023-01-04T09:02:18;100442.59;;;6.81;95.48
11605;BME280;5858;43.076;25.626;2023-01-04T09:04:45;100390.91;;;6.53;95.74
11605;BME280;5858;43.076;25.626;2023-01-04T09:07:12;100482.47;;;7.02;96.39
11605;BME280;5858;43.076;25.626;2023-01-04T09:09:44;100468.59;;;6.98;96.11
11605;BME280;5858;43.076;25.626;2023-01-04T09:12:28;100308.41;;;5.92;96.31
11605;BME280;5858;43.076;25.626;2023-01-04T09:15:04;100394.22;;;6.66;96.50
11605;BME280;5858;43.076;25.626;2023-01-04T09:17:32;100450.38;;;6.93;96.42
11605;BME280;5858;43.076;25.626;2023-01-04T09:19:59;100378.44;;;6.74;96.66
11605;BME280;5858;43.076;25.626;2023-01-04T09:22:27;100295.06;;;6.24;96.77
11605;BME280;5858;43.076;25.626;2023-01-04T09:24:56;100402.50;;;7.03;96.55
11605;BME280;5858;43.076;25.626;2023-01-04T09:27:23;100464.88;;;7.41;96.30
11605;BME280;5858;43.076;25.626;2023-01-04T09:29:51;100453.53;;;7.48;96.58
11605;BME280;5858;43.076;25.626;2023-01-04T09:32:19;100370.13;;;6.98;96.14
11605;BME280;5858;43.076;25.626;2023-01-04T09:34:47;100378.00;;;7.00;96.13
11605;BME280;5858;43.076;25.626;2023-01-04T09:37:18;100440.38;;;7.56;96.31
11605;BME280;5858;43.076;25.626;2023-01-04T09:39:46;100323.75;;;6.91;95.75
11605;BME280;5858;43.076;25.626;2023-01-04T09:42:25;100260.56;;;6.64;95.62
11605;BME280;5858;43.076;25.626;2023-01-04T09:44:57;100243.00;;;6.52;95.09
11605;BME280;5858;43.076;25.626;2023-01-04T09:47:35;100423.06;;;7.91;94.18
11605;BME280;5858;43.076;25.626;2023-01-04T09:50:10;100450.72;;;8.00;93.99
11605;BME280;5858;43.076;25.626;2023-01-04T09:52:47;100357.94;;;7.45;93.05
11605;BME280;5858;43.076;25.626;2023-01-04T09:55:19;100397.09;;;7.64;93.37
11605;BME280;5858;43.076;25.626;2023-01-04T09:57:53;100386.31;;;7.66;93.07
11605;BME280;5858;43.076;25.626;2023-01-04T10:00:27;100461.94;;;8.03;93.16
11605;BME280;5858;43.076;25.626;2023-01-04T10:03:01;100447.06;;;7.91;94.23
11605;BME280;5858;43.076;25.626;2023-01-04T10:05:31;100371.44;;;7.63;94.34
11605;BME280;5858;43.076;25.626;2023-01-04T10:08:01;100342.69;;;7.47;94.16
11605;BME280;5858;43.076;25.626;2023-01-04T10:10:40;100271.31;;;7.12;93.68
11605;BME280;5858;43.076;25.626;2023-01-04T10:13:21;100235.53;;;6.76;93.89
11605;BME280;5858;43.076;25.626;2023-01-04T10:16:14;100357.28;;;7.72;93.95
11605;BME280;5858;43.076;25.626;2023-01-04T10:18:54;100441.34;;;8.15;94.15
11605;BME280;5858;43.076;25.626;2023-01-04T10:21:36;100347.91;;;7.68;94.36
11605;BME280;5858;43.076;25.626;2023-01-04T10:24:31;100379.44;;;7.92;94.07
11605;BME280;5858;43.076;25.626;2023-01-04T10:27:06;100252.94;;;7.09;93.79
11605;BME280;5858;43.076;25.626;2023-01-04T10:30:06;100245.28;;;7.25;93.93
11605;BME280;5858;43.076;25.626;2023-01-04T10:32:43;100425.06;;;8.37;94.05
11605;BME280;5858;43.076;25.626;2023-01-04T10:35:22;100317.19;;;7.83;93.55
11605;BME280;5858;43.076;25.626;2023-01-04T10:38:33;100413.41;;;8.58;93.57
11605;BME280;5858;43.076;25.626;2023-01-04T10:41:19;100442.63;;;8.59;93.18
11605;BME280;5858;43.076;25.626;2023-01-04T10:47:05;100239.81;;;7.37;92.70
11605;BME280;5858;43.076;25.626;2023-01-04T10:49:41;100308.91;;;7.96;92.86
11605;BME280;5858;43.076;25.626;2023-01-04T10:52:39;100371.72;;;8.28;92.78
11605;BME280;5858;43.076;25.626;2023-01-04T10:55:16;100344.66;;;8.23;92.72
11605;BME280;5858;43.076;25.626;2023-01-04T10:57:51;100357.56;;;8.27;92.45
11605;BME280;5858;43.076;25.626;2023-01-04T11:00:27;100371.88;;;8.36;92.88
11605;BME280;5858;43.076;25.626;2023-01-04T11:03:01;100423.06;;;8.68;92.84
11605;BME280;5858;43.076;25.626;2023-01-04T11:05:36;100391.91;;;8.49;92.91
11605;BME280;5858;43.076;25.626;2023-01-04T11:08:08;100412.13;;;8.71;93.19
11605;BME280;5858;43.076;25.626;2023-01-04T11:10:41;100391.38;;;8.46;93.50
11605;BME280;5858;43.076;25.626;2023-01-04T11:13:11;100246.25;;;7.63;93.75
11605;BME280;5858;43.076;25.626;2023-01-04T11:15:41;100374.66;;;8.44;93.52
11605;BME280;5858;43.076;25.626;2023-01-04T11:18:11;100289.53;;;8.04;93.57
11605;BME280;5858;43.076;25.626;2023-01-04T11:20:39;100375.66;;;8.52;93.74
11605;BME280;5858;43.076;25.626;2023-01-04T11:23:13;100218.91;;;7.71;92.68
11605;BME280;5858;43.076;25.626;2023-01-04T11:25:44;100226.91;;;7.71;92.77
11605;BME280;5858;43.076;25.626;2023-01-04T11:28:17;100408.22;;;8.46;94.35
11605;BME280;5858;43.076;25.626;2023-01-04T11:30:56;100312.81;;;8.02;93.71
11605;BME280;5858;43.076;25.626;2023-01-04T11:33:26;100268.25;;;7.46;94.43
11605;BME280;5858;43.076;25.626;2023-01-04T11:35:54;100222.44;;;7.33;94.78
11605;BME280;5858;43.076;25.626;2023-01-04T11:38:25;100356.16;;;8.23;95.02
11605;BME280;5858;43.076;25.626;2023-01-04T11:40:57;100373.41;;;8.38;95.13
11605;BME280;5858;43.076;25.626;2023-01-04T11:43:24;100333.03;;;8.14;95.29
11605;BME280;5858;43.076;25.626;2023-01-04T11:45:55;100332.16;;;8.23;94.93
11605;BME280;5858;43.076;25.626;2023-01-04T11:48:39;100317.03;;;8.14;94.47
11605;BME280;5858;43.076;25.626;2023-01-04T11:51:16;100310.41;;;8.18;94.65
11605;BME280;5858;43.076;25.626;2023-01-04T11:53:44;100395.13;;;8.72;94.49
11605;BME280;5858;43.076;25.626;2023-01-04T11:56:15;100289.81;;;8.10;94.52
11605;BME280;5858;43.076;25.626;2023-01-04T11:59:01;100390.34;;;8.76;94.31
11605;BME280;5858;43.076;25.626;2023-01-04T12:01:31;100354.56;;;8.49;94.86
11605;BME280;5858;43.076;25.626;2023-01-04T12:04:01;100204.06;;;7.49;96.58
11605;BME280;5858;43.076;25.626;2023-01-04T12:06:35;100315.28;;;8.32;95.96
11605;BME280;5858;43.076;25.626;2023-01-04T12:09:07;100226.84;;;7.90;95.99
11605;BME280;5858;43.076;25.626;2023-01-04T12:11:54;100375.00;;;8.78;96.84
11605;BME280;5858;43.076;25.626;2023-01-04T12:14:24;100326.38;;;8.47;97.27
11605;BME280;5858;43.076;25.626;2023-01-04T12:16:56;100371.06;;;8.82;98.26
11605;BME280;5858;43.076;25.626;2023-01-04T12:19:28;100370.84;;;8.66;99.46
11605;BME280;5858;43.076;25.626;2023-01-04T12:21:59;100397.97;;;8.61;100.00
11605;BME280;5858;43.076;25.626;2023-01-04T12:24:28;100390.22;;;8.68;100.00
11605;BME280;5858;43.076;25.626;2023-01-04T12:26:57;100318.25;;;8.29;100.00
11605;BME280;5858;43.076;25.626;2023-01-04T12:29:43;100351.50;;;8.54;100.00
11605;BME280;5858;43.076;25.626;2023-01-04T12:32:44;100383.19;;;8.67;100.00
11605;BME280;5858;43.076;25.626;2023-01-04T12:45:08;100371.06;;;8.06;100.00
11605;BME280;5858;43.076;25.626;2023-01-04T12:47:44;100328.81;;;8.02;100.00
11605;BME280;5858;43.076;25.626;2023-01-04T12:50:28;100327.97;;;8.11;100.00
11605;BME280;5858;43.076;25.626;2023-01-04T12:52:59;100393.19;;;8.55;100.00
11605;BME280;5858;43.076;25.626;2023-01-04T12:55:52;100373.84;;;8.53;100.00
11605;BME280;5858;43.076;25.626;2023-01-04T12:58:41;100364.00;;;8.44;100.00
11605;BME280;5858;43.076;25.626;2023-01-04T13:01:21;100416.31;;;8.74;100.00
11605;BME280;5858;43.076;25.626;2023-01-04T13:03:57;100409.72;;;8.78;100.00
11605;BME280;5858;43.076;25.626;2023-01-04T13:06:27;100322.34;;;8.24;100.00
11605;BME280;5858;43.076;25.626;2023-01-04T13:08:55;100321.06;;;8.28;100.00
11605;BME280;5858;43.076;25.626;2023-01-04T13:11:51;100408.13;;;8.85;100.00
11605;BME280;5858;43.076;25.626;2023-01-04T13:14:27;100361.34;;;8.44;100.00
11605;BME280;5858;43.076;25.626;2023-01-04T13:17:13;100361.34;;;8.44;100.00
11605;BME280;5858;43.076;25.626;2023-01-04T13:19:42;100419.84;;;8.65;100.00
11605;BME280;5858;43.076;25.626;2023-01-04T13:22:16;100369.78;;;8.10;100.00
11605;BME280;5858;43.076;25.626;2023-01-04T13:24:46;100260.53;;;7.43;100.00
11605;BME280;5858;43.076;25.626;2023-01-04T13:27:15;100329.25;;;7.58;100.00
11605;BME280;5858;43.076;25.626;2023-01-04T13:29:43;100436.56;;;8.18;100.00
11605;BME280;5858;43.076;25.626;2023-01-04T13:32:15;100384.34;;;7.97;100.00
11605;BME280;5858;43.076;25.626;2023-01-04T13:34:52;100366.56;;;7.78;100.00
11605;BME280;5858;43.076;25.626;2023-01-04T13:37:27;100385.38;;;8.05;100.00
11605;BME280;5858;43.076;25.626;2023-01-04T13:40:22;100412.00;;;8.25;100.00
11605;BME280;5858;43.076;25.626;2023-01-04T13:42:57;100443.03;;;8.35;100.00